Latest Coastal Weather Observations for King Island Airport

IDT60701

Issued at 5:12 am EDT Monday 9 December 2019 (issued every 10 minutes, with the page automatically refreshed every 10 minutes)

About coastal observations | Map of coastal stations | Coastal observations for TAS | Marine services | Other Formats
Station Details ID: 098017 Name: KING ISLAND AIRPORT Lat: -39.88 Lon: 143.89 Height: 35.42 m
Data from the previous 72 hours. | See also: Recent months at King Island Airport
Date/Time
EDT
Wind Sea
Height
m
Swell Vis
km
Cloud Weather Temp
°C
Press
hPa
Rain since
9am
mm
Dir  Spd
kts
Gust
kts
Height
m
Period
s
Dir
09/01:00am E 15 20 - - - - 10 - - 13.0 1014.8 0.0
09/12:30am E 13 19 - - - - 10 - - 12.9 1015.4 0.0
09/12:00am ENE 14 20 - - - - 10 - - 12.8 1015.7 0.0
 
Date/Time
EDT
Wind Sea
Height
m
Swell Vis
km
Cloud Weather Temp
°C
Press
hPa
Rain since
9am
mm
Dir  Spd
kts
Gust
kts
Height
m
Period
s
Dir
08/11:30pm ENE 13 19 - - - - 10 - - 12.8 1016.6 0.0
08/11:00pm ENE 15 21 - - - - 10 - - 12.6 1016.6 0.0
08/10:30pm ENE 14 19 - - - - 10 - - 12.7 1017.0 0.0
08/10:00pm ENE 13 19 - - - - 10 - - 12.7 1017.2 0.0
08/09:30pm ENE 11 16 - - - - 10 - - 12.8 1017.3 0.0
08/09:00pm ENE 14 18 - - - - 10 - - 13.0 1016.9 0.0
08/08:30pm ENE 14 19 - - - - 10 - - 13.2 1016.5 0.0
08/08:00pm ENE 13 18 - - - - 10 - - 13.8 1017.1 0.0
08/07:30pm ENE 15 19 - - - - 10 - - 14.6 1017.0 0.0
08/07:00pm ENE 13 18 - - - - 10 - - 15.1 1017.3 0.0
08/06:30pm ENE 12 17 - - - - 10 - - 15.7 1017.4 0.0
08/06:00pm ENE 12 15 - - - - 10 - - 16.8 1017.8 0.0
08/05:30pm ENE 11 16 - - - - 10 - - 17.5 1017.5 0.0
08/05:00pm ENE 11 16 - - - - 10 - - 17.6 1017.9 0.0
08/04:30pm E 11 16 - - - - 10 - - 18.1 1018.1 0.0
08/04:00pm ENE 11 16 - - - - 10 - - 18.6 1018.0 0.0
08/03:30pm ENE 13 18 - - - - 10 - - 18.5 1017.8 0.0
08/03:00pm NE 11 15 - - - - 10 - - 19.0 1018.5 0.0
08/02:30pm ENE 11 16 - - - - 10 - - 18.4 1018.4 0.0
08/02:00pm ENE 10 14 - - - - 10 - - 18.4 1018.7 0.0
08/01:30pm ENE 10 13 - - - - 10 - - 18.9 1018.7 0.0
08/01:00pm ENE 9 13 - - - - 10 - - 18.6 1018.9 0.0
08/12:30pm NE 6 9 - - - - 10 - - 17.8 1019.6 0.0
08/12:00pm ENE 6 10 - - - - 10 - - 17.2 1019.8 0.0
08/11:30am ESE 6 12 - - - - 10 Partly cloudy - 16.9 1020.2 0.0
08/11:00am ENE 8 14 - - - - 10 Partly cloudy - 16.3 1020.2 0.0
08/10:30am E 9 15 - - - - 10 - - 16.1 1019.9 0.0
08/10:00am E 11 14 - - - - 10 Partly cloudy - 16.0 1019.6 0.0
08/09:30am ENE 9 14 - - - - 10 Partly cloudy - 15.0 1020.0 0.0
08/09:00am E 8 13 - - - - 10 Mostly clear - 14.3 1020.0 0.0
08/08:30am ESE 5 7 - - - - 10 - - 14.0 1020.2 0.0
08/08:00am E 4 5 - - - - 10 - - 12.4 1020.2 0.0
08/07:30am E 1 4 - - - - 10 - - 10.6 1020.0 0.0
08/07:00am ESE 1 3 - - - - 10 - - 7.5 1019.8 0.0
08/06:30am ESE 3 4 - - - - 10 - - 5.9 1019.5 0.0
08/06:00am ESE 4 4 - - - - 10 - - 5.8 1019.1 0.0
08/05:30am ESE 3 4 - - - - 10 - - 5.8 1019.0 0.0
08/05:00am CALM 0 0 - - - - 10 - - 6.6 1018.8 0.0
08/04:30am CALM 0 0 - - - - 10 - - 6.5 1018.5 0.0
08/04:00am CALM 0 0 - - - - 10 - - 7.0 1018.3 0.0
08/03:30am CALM 0 0 - - - - 10 - - 7.4 1018.2 0.0
08/03:00am S 1 3 - - - - 10 Partly cloudy - 8.5 1018.4 0.0
08/02:30am S 4 5 - - - - 10 Partly cloudy - 9.6 1018.8 0.0
08/02:00am SSW 6 7 - - - - 10 Cloudy - 10.2 1019.0 0.0
08/01:30am SW 7 9 - - - - 10 Cloudy - 11.5 1019.2 0.0
08/01:00am SW 7 9 - - - - 10 Cloudy - 11.6 1019.3 0.0
08/12:30am WSW 7 9 - - - - 10 Cloudy - 11.6 1019.3 0.0
08/12:00am SW 6 8 - - - - 10 Cloudy - 11.5 1019.2 0.0
 
Date/Time
EDT
Wind Sea
Height
m
Swell Vis
km
Cloud Weather Temp
°C
Press
hPa
Rain since
9am
mm
Dir  Spd
kts
Gust
kts
Height
m
Period
s
Dir
07/11:30pm SW 5 6 - - - - 10 Cloudy - 11.3 1019.2 0.0
07/11:00pm SW 5 7 - - - - 10 Cloudy - 11.1 1019.2 0.0
07/10:30pm SW 5 7 - - - - 10 Cloudy - 11.2 1018.8 0.0
07/10:00pm SW 8 11 - - - - 10 Cloudy - 11.4 1018.6 0.0
07/09:30pm SW 7 9 - - - - 10 Cloudy - 11.0 1018.3 0.0
07/09:00pm SSW 9 12 - - - - 10 Mostly clear - 11.2 1018.1 0.0
07/08:30pm SW 10 14 - - - - 10 Partly cloudy - 11.4 1017.8 0.0
07/08:00pm SW 11 15 - - - - 10 Partly cloudy - 12.0 1017.5 0.0
07/07:30pm SW 13 17 - - - - 10 Partly cloudy - 13.1 1017.1 0.0
07/07:00pm SW 16 21 - - - - 10 Partly cloudy - 13.3 1017.1 0.0
07/06:30pm SW 16 21 - - - - 10 Partly cloudy - 12.7 1017.0 0.0
07/06:29pm SW 16 21 - - - - 10 Partly cloudy - 12.7 1017.0 0.0
07/06:00pm WSW 17 23 - - - - 10 Cloudy - 13.3 1016.7 0.0
07/05:47pm WSW 15 20 - - - - 10 Partly cloudy - 13.4 1016.7 0.0
07/05:30pm WSW 16 23 - - - - 10 Partly cloudy - 13.4 1016.6 0.0
07/05:28pm WSW 16 23 - - - - 10 Partly cloudy - 13.6 1016.6 0.0
07/05:13pm WSW 16 21 - - - - 10 Partly cloudy - 13.4 1016.6 0.0
07/05:10pm WSW 16 21 - - - - 10 Partly cloudy - 13.4 1016.6 0.0
07/05:00pm WSW 15 22 - - - - 10 Partly cloudy - 13.2 1016.5 0.0
07/04:30pm WSW 16 23 - - - - 9 Partly cloudy - 12.6 1016.4 0.0
07/04:00pm WSW 16 21 - - - - 10 Partly cloudy - 13.1 1016.1 0.0
07/03:55pm WSW 17 25 - - - - 10 Partly cloudy - 13.3 1016.1 0.0
07/03:30pm WSW 17 24 - - - - 10 Partly cloudy - 14.2 1016.0 0.0
07/03:00pm WSW 18 24 - - - - 10 Cloudy - 13.4 1015.9 0.0
07/02:30pm WSW 17 26 - - - - 10 Partly cloudy - 13.9 1015.8 0.0
07/02:00pm WSW 18 24 - - - - 10 Cloudy - 14.2 1015.7 0.0
07/01:30pm WSW 19 26 - - - - 10 Partly cloudy - 13.8 1015.6 0.0
07/01:00pm WSW 19 26 - - - - 10 Cloudy - 13.8 1015.3 0.0
07/12:30pm WSW 18 24 - - - - 10 Partly cloudy - 13.4 1015.3 0.0
07/12:00pm WSW 20 28 - - - - 10 Mostly cloudy - 14.9 1015.2 0.0
07/11:30am W 19 27 - - - - 10 Partly cloudy - 14.1 1015.2 0.0
07/11:00am W 19 25 - - - - 10 Cloudy - 14.7 1015.1 0.0
07/10:30am WSW 19 27 - - - - 10 Cloudy - 13.7 1015.0 0.0
07/10:00am W 18 25 - - - - 10 Partly cloudy - 13.8 1014.7 0.0
07/09:30am W 18 25 - - - - 10 Partly cloudy - 13.6 1015.0 0.0
07/09:00am WSW 15 21 - - - - 10 Cloudy - 13.7 1015.0 0.2
07/08:30am WSW 17 23 - - - - 10 Partly cloudy - 13.1 1015.0 0.2
07/08:00am WSW 17 24 - - - - 10 Partly cloudy - 12.9 1014.9 0.2
07/07:30am W 17 24 - - - - 10 Partly cloudy - 12.4 1014.5 0.2
07/07:00am WSW 16 22 - - - - 10 Partly cloudy - 11.8 1014.1 0.2
07/06:30am WSW 16 21 - - - - 10 Partly cloudy - 11.5 1013.8 0.2
07/06:00am WSW 15 22 - - - - 10 Cloudy - 11.3 1013.5 0.2
07/05:30am WSW 16 21 - - - - 10 Partly cloudy - 11.6 1013.2 0.2
07/05:00am WSW 16 21 - - - - 10 Partly cloudy - 11.4 1013.1 0.2
07/04:30am WSW 16 22 - - - - 10 Cloudy - 11.5 1012.9 0.2
07/04:00am WSW 15 21 - - - - 10 Partly cloudy - 11.6 1013.1 0.2
07/03:30am WSW 17 25 - - - - 10 Partly cloudy - 11.0 1012.9 0.2
07/03:00am WSW 18 26 - - - - 10 Mostly cloudy - 10.9 1012.9 0.2
07/02:48am WSW 16 26 - - - - 10 Partly cloudy - 11.5 1012.9 0.2
07/02:30am WSW 16 23 - - - - 10 Partly cloudy - 11.2 1013.0 0.2
07/02:00am WSW 14 21 - - - - 10 Partly cloudy - 11.7 1013.1 0.2
07/01:30am WSW 17 24 - - - - 10 Partly cloudy - 11.1 1013.2 0.2
07/01:00am WSW 18 23 - - - - 10 Partly cloudy - 11.5 1013.1 0.2
07/12:30am W 18 26 - - - - 10 Partly cloudy - 11.9 1013.4 0.2
07/12:00am W 17 23 - - - - 10 Cloudy - 11.8 1013.5 0.2
 
Date/Time
EDT
Wind Sea
Height
m
Swell Vis
km
Cloud Weather Temp
°C
Press
hPa
Rain since
9am
mm
Dir  Spd
kts
Gust
kts
Height
m
Period
s
Dir
06/11:30pm WSW 18 23 - - - - 10 Partly cloudy - 11.5 1013.5 0.2
06/11:00pm WSW 18 25 - - - - 10 Partly cloudy - 11.5 1013.2 0.2
06/10:30pm WSW 17 24 - - - - 10 Partly cloudy - 11.4 1013.2 0.2
06/10:00pm WSW 18 25 - - - - 10 Partly cloudy - 11.5 1013.3 0.2
06/09:32pm WSW 17 27 - - - - 10 Partly cloudy - 11.8 1012.8 0.2
06/09:30pm WSW 18 27 - - - - 10 Partly cloudy - 11.8 1012.7 0.2
06/09:00pm WSW 21 31 - - - - 10 Cloudy - 11.6 1012.4 0.2
06/08:47pm WSW 19 29 - - - - 10 Partly cloudy - 12.0 1012.4 0.2
06/08:30pm W 20 27 - - - - 10 Partly cloudy - 12.0 1012.2 0.2
06/08:00pm WSW 19 28 - - - - 10 Partly cloudy - 12.0 1012.2 0.2
06/07:30pm WSW 18 26 - - - - 10 Partly cloudy - 12.2 1011.8 0.2
06/07:07pm WSW 17 29 - - - - 10 Partly cloudy - 12.1 1011.4 0.0
06/07:00pm WSW 17 24 - - - - 10 Partly cloudy - 12.3 1011.5 0.0
06/06:34pm WSW 22 32 - - - - 10 Partly cloudy - 12.5 1011.2 0.0
06/06:30pm WSW 21 30 - - - - 10 Partly cloudy - 12.6 1011.2 0.0
06/06:00pm WSW 19 27 - - - - 10 Partly cloudy - 13.1 1010.6 0.0
06/05:30pm WSW 20 29 - - - - 10 Partly cloudy - 13.1 1010.7 0.0
06/05:00pm W 21 32 - - - - 10 Partly cloudy - 11.7 1011.0 0.0
06/04:59pm W 20 32 - - - - 10 Partly cloudy - 12.2 1011.0 0.0
06/04:30pm W 20 28 - - - - 10 Partly cloudy - 13.2 1010.6 0.0
06/04:08pm WSW 19 29 - - - - 10 Partly cloudy - 13.6 1010.5 0.0
06/04:00pm WSW 21 28 - - - - 10 Partly cloudy - 14.0 1010.4 0.0
06/03:30pm WSW 22 32 - - - - 10 Partly cloudy - 13.1 1010.2 0.0
06/03:06pm WSW 21 31 - - - - 10 Partly cloudy - 13.5 1010.2 0.0
06/03:00pm W 21 29 - - - - 10 Cloudy Recent precip. 13.0 1010.3 0.0
06/02:36pm WSW 19 29 - - - - 10 Partly cloudy - 12.7 1009.8 0.0
06/02:30pm W 18 25 - - - - 10 Partly cloudy - 13.6 1009.8 0.0
06/02:00pm WSW 21 28 - - - - 10 Partly cloudy - 13.8 1009.7 0.0
06/01:30pm W 21 31 - - - - 10 Partly cloudy - 13.8 1009.7 0.0
06/01:01pm WSW 21 31 - - - - 10 Partly cloudy - 14.3 1009.6 0.0
06/01:00pm WSW 22 31 - - - - 10 Partly cloudy - 14.4 1009.7 0.0
06/12:30pm WSW 21 32 - - - - 10 Partly cloudy - 14.1 1009.2 0.0
06/12:09pm WSW 20 30 - - - - 10 Partly cloudy - 14.9 1009.0 0.0
06/12:00pm WSW 22 30 - - - - 10 Cloudy - 13.8 1009.1 0.0
06/11:33am W 22 32 - - - - 10 Partly cloudy - 13.7 1008.8 0.0
06/11:30am W 21 29 - - - - 10 Partly cloudy - 13.5 1008.7 0.0
06/11:00am WSW 21 29 - - - - 10 Partly cloudy - 13.3 1008.6 0.0
06/10:41am WSW 21 31 - - - - 10 Partly cloudy - 13.6 1008.4 0.0
06/10:30am WSW 23 31 - - - - 10 Partly cloudy - 14.1 1008.4 0.0
06/10:00am W 19 29 - - - - 10 Partly cloudy - 13.0 1008.1 0.0
06/09:31am WSW 22 32 - - - - 10 Partly cloudy - 13.0 1008.1 0.0
06/09:30am WSW 23 32 - - - - 10 Partly cloudy - 13.0 1008.0 0.0
06/09:00am WSW 24 38 - - - - 10 Mostly cloudy Recent precip. 12.8 1008.1 0.4
06/08:30am WSW 23 35 - - - - 10 Partly cloudy - 12.2 1007.7 0.4
06/08:00am W 19 29 - - - - 10 Partly cloudy - 13.0 1007.2 0.4
06/07:37am W 19 29 - - - - 10 Cloudy - 12.7 1006.7 0.4
06/07:30am W 22 29 - - - - 10 Cloudy - 12.6 1006.9 0.4
06/07:00am W 22 33 - - - - 10 Partly cloudy - 12.2 1006.9 0.4
06/06:30am W 22 33 - - - - 10 Partly cloudy - 11.9 1006.7 0.4
06/06:27am W 22 33 - - - - 10 Partly cloudy - 11.8 1006.7 0.4
06/06:00am W 19 26 - - - - 10 Cloudy - 11.7 1006.6 0.2
06/05:42am W 19 29 - - - - 10 Partly cloudy - 12.0 1006.3 0.2
06/05:30am W 21 28 - - - - 10 Partly cloudy - 11.9 1006.5 0.2

Other formats

Comma delimited format used in spreadsheet applications
http://www.bom.gov.au/fwo/IDT60701/IDT60701.94850.axf

JavaScript Object Notation format (JSON) in row-major order
http://www.bom.gov.au/fwo/IDT60701/IDT60701.94850.json

Data quality

Most of these data are generated automatically and are frequently updated. Quality checks on data are not normally performed. It is possible for incorrect values to appear. Refer to information at About Latest Weather Observations and please check the disclaimer before using these data.